Página principal
METAR-TAF:

METAR-TAF

Aeroportos :

Niamtougou, Togo

latitude: 09-46N, longitude: 001-06E, altura: 342 m

Observação actual do tempo

O boletim foi feito há 53 minutos, às 11:00 UTC
Vento 6 kt de su-sudeste
Temperatura 29°C
Humidade 58%
Pressão 1015 hPa
Visibilidade 10 km ou mais
Poucas nuvensa uma altura de 600 ft

METAR: DXNG 191100Z 16006KT 9999 FEW006 29/20 Q1015

Hora: 11:53 (11:53 UTC)

Previsão

O boletim foi feito há 6 horas e 53 minutos, às 05:00 UTC
Previsão válida de 19 às 06 UTC a 20 às 06 UTC
Vento 5 kt com direcção variável
Visibilidade 10 km ou mais
Nuvens dispersasa uma altura de 800 ft

TAF: DXNG 190500Z 1906/2006 VRB05KT 9999 SCT008

Observações e previsões do tempo de mais de 4000 aeroportos (mensagens METAR e TAF).

As estações disponíveis são os pontos amarelos e vermelhos sobre o mapa.

Mova o rato sobre o mapa para ver o nome da estação.

Depois clique no ponto para visualizar as observações e previsões meteorológicas.

Para alterar o mapa : clique nos botões verdes com uma cruz preta para aumentar o zoom; no botão verde com uma pitada de zoom; ou nas setas verdes para mapas adjacentes.


METAR-TAF: